MST,Max TemperatureF,Mean TemperatureF,Min TemperatureF,Max Dew PointF,MeanDew PointF,Min DewpointF,Max Humidity, Mean Humidity, Min Humidity, Max Sea Level PressureIn, Mean Sea Level PressureIn, Min Sea Level PressureIn, Max VisibilityMiles, Mean VisibilityMiles, Min VisibilityMiles, Max Wind SpeedMPH, Mean Wind SpeedMPH, Max Gust SpeedMPH,PrecipitationIn, CloudCover, Events, WindDirDegrees
2013-2-1,42,32,21,27,23,14,75,58,41,30.40,30.19,30.02,10,10,9,20,8,24,T,5,Snow,280
2013-2-2,37,24,11,21,14,6,83,68,52,30.57,30.47,30.29,10,10,10,13,5,14,0.00,0,,153
2013-2-3,32,21,9,21,14,5,84,74,63,30.36,30.20,29.99,10,10,9,10,4,12,0.00,2,,149
2013-2-4,42,34,26,27,22,17,75,58,40,30.08,30.01,29.91,10,10,8,20,7,23,0.00,6,,312
2013-2-5,40,35,29,28,25,21,85,72,59,30.01,29.91,29.75,10,10,10,12,4,12,0.00,4,,84
2013-2-6,39,29,18,24,20,13,84,66,48,30.19,30.04,29.80,10,10,10,17,5,22,0.00,4,,155
2013-2-7,35,24,12,20,15,7,81,66,51,30.17,30.09,30.01,10,10,8,12,3,13,0.00,1,,161
2013-2-8,33,23,13,20,16,9,81,70,59,30.08,30.03,29.98,10,10,10,8,2,9,0.00,5,,146
2013-2-9,33,23,13,25,19,10,92,73,54,30.03,29.96,29.86,10,8,2,14,5,17,T,7,Snow,313
2013-2-10,28,16,4,21,12,-1,83,67,50,30.31,30.20,30.04,10,10,10,16,9,20,T,5,,290
2013-2-11,29,15,0,12,5,-1,86,68,50,30.30,30.25,30.20,10,10,10,14,3,14,0.00,4,,158
2013-2-12,37,24,10,24,17,8,84,68,52,30.32,30.24,30.15,10,10,10,12,2,15,0.00,7,,148
2013-2-13,42,37,31,25,22,19,78,62,45,30.17,30.07,29.99,10,10,10,25,8,31,0.00,6,,274
2013-2-14,35,30,24,23,19,16,75,65,54,30.44,30.35,30.19,10,9,2,16,4,20,T,8,Snow,265
2013-2-15,40,30,19,23,19,14,77,61,44,30.53,30.43,30.35,10,10,2,10,5,13,0.00,3,,127
2013-2-16,45,30,15,24,19,12,88,64,40,30.36,30.14,29.78,10,10,10,12,3,13,0.00,1,,130
2013-2-17,38,32,25,30,25,19,85,73,61,30.09,29.87,29.75,10,7,0,32,7,39,0.01,8,Fog-Snow,333
2013-2-18,33,24,14,20,15,7,81,61,41,30.20,30.09,29.87,10,10,10,9,4,10,0.00,3,,135
2013-2-19,38,26,13,18,14,10,80,62,44,29.98,29.85,29.75,10,10,9,8,2,9,0.00,2,,149
2013-2-20,28,20,12,25,21,7,92,80,68,29.97,29.83,29.71,10,3,1,7,2,9,0.04,7,Snow,91
2013-2-21,30,18,5,25,15,8,92,69,46,30.10,30.00,29.84,10,8,2,8,3,9,T,5,Snow,142
2013-2-22,37,28,18,20,16,12,81,61,40,30.10,29.93,29.71,10,10,10,21,7,25,0.00,6,,176
2013-2-23,37,32,26,27,22,15,92,72,52,30.15,29.76,29.59,10,6,0,22,7,30,0.02,8,Fog-Snow,321
2013-2-24,31,21,10,21,12,7,88,66,43,30.34,30.25,30.05,10,10,10,14,7,16,0.00,2,,142
2013-2-25,34,21,7,24,14,3,92,72,51,30.22,30.07,29.93,10,9,0,14,5,16,T,3,Fog,130
2013-2-26,33,23,12,19,14,8,96,70,43,30.35,30.21,29.94,10,9,1,14,4,22,T,6,,136
2013-2-27,36,22,8,17,11,3,84,61,38,30.44,30.34,30.18,10,10,10,15,5,20,0.00,3,,132
2013-2-28,41,29,17,25,19,12,78,59,40,30.40,30.36,30.32,10,10,10,10,3,15,0.00,5,,133